createdAt,value
2023-04-05T00:02:30.161Z,14.94
2023-04-05T00:05:34.644Z,15.02
2023-04-05T00:08:38.326Z,15.03
2023-04-05T00:11:42.485Z,15.17
2023-04-05T00:14:45.949Z,14.96
2023-04-05T00:17:48.538Z,15.08
2023-04-05T00:20:54.454Z,14.94
2023-04-05T00:24:00.154Z,14.90
2023-04-05T00:27:02.554Z,14.96
2023-04-05T00:30:05.953Z,15.00
2023-04-05T00:33:08.779Z,15.15
2023-04-05T00:36:14.931Z,14.93
2023-04-05T00:39:18.068Z,14.75
2023-04-05T00:42:20.615Z,14.88
2023-04-05T00:45:23.303Z,14.99
2023-04-05T00:48:26.531Z,14.88
2023-04-05T00:51:30.797Z,14.97
2023-04-05T00:54:33.198Z,15.00
2023-04-05T00:57:39.386Z,14.85
2023-04-05T01:00:47.571Z,14.76
2023-04-05T01:03:56.106Z,14.91
2023-04-05T01:06:58.307Z,14.85
2023-04-05T01:10:00.845Z,14.82
2023-04-05T01:13:03.381Z,14.87
2023-04-05T01:16:06.469Z,14.93
2023-04-05T01:19:10.192Z,14.85
2023-04-05T01:22:38.256Z,14.83
2023-04-05T01:26:02.347Z,14.82
2023-04-05T01:29:24.726Z,15.03
2023-04-05T01:32:43.973Z,14.95
2023-04-05T01:35:52.966Z,14.97
2023-04-05T01:38:57.746Z,14.96
2023-04-05T01:42:02.322Z,15.11
2023-04-05T01:45:04.905Z,15.07
2023-04-05T01:48:07.693Z,14.91
2023-04-05T01:51:10.354Z,14.85
2023-04-05T01:54:12.592Z,14.97
2023-04-05T01:57:14.859Z,14.96
2023-04-05T02:00:17.519Z,14.93
2023-04-05T02:03:20.829Z,14.96
2023-04-05T02:06:23.418Z,14.87
2023-04-05T02:09:25.877Z,14.72
2023-04-05T02:12:28.129Z,14.75
2023-04-05T02:15:30.220Z,14.70
2023-04-05T02:18:33.202Z,14.78
2023-04-05T02:21:36.978Z,14.82
2023-04-05T02:24:39.017Z,14.83
2023-04-05T02:27:41.446Z,14.96
2023-04-05T02:30:43.660Z,14.76
2023-04-05T02:33:46.817Z,14.76
2023-04-05T02:36:51.444Z,14.80
2023-04-05T02:39:54.215Z,14.60
2023-04-05T02:42:56.593Z,14.88
2023-04-05T02:45:58.621Z,14.82
2023-04-05T02:49:01.308Z,14.80
2023-04-05T02:52:05.772Z,14.71
2023-04-05T02:55:08.237Z,14.89
2023-04-05T02:58:11.445Z,14.78
2023-04-05T03:01:20.572Z,14.72
2023-04-05T03:04:23.206Z,14.70
2023-04-05T03:07:25.951Z,14.73
2023-04-05T03:10:32.902Z,14.67
2023-04-05T03:13:39.860Z,14.62
2023-04-05T03:16:47.822Z,14.81
2023-04-05T03:20:01.019Z,14.70
2023-04-05T03:23:03.627Z,14.61
2023-04-05T03:26:10.554Z,14.53
2023-04-05T03:29:18.099Z,14.57
2023-04-05T03:32:21.754Z,14.51
2023-04-05T03:35:31.485Z,14.64
2023-04-05T03:38:33.912Z,14.66
2023-04-05T03:41:44.573Z,14.65
2023-04-05T03:44:49.964Z,14.57
2023-04-05T03:47:52.350Z,14.54
2023-04-05T03:50:54.552Z,14.57
2023-04-05T03:53:59.386Z,14.51
2023-04-05T03:57:07.471Z,14.36
2023-04-05T04:00:18.071Z,14.44
2023-04-05T04:03:32.007Z,14.48
2023-04-05T04:06:36.517Z,14.76
2023-04-05T04:09:38.970Z,15.22
2023-04-05T04:12:45.433Z,15.23
2023-04-05T04:15:47.879Z,15.53
2023-04-05T04:19:09.825Z,15.52
2023-04-05T04:22:33.466Z,15.48
2023-04-05T04:25:56.085Z,15.47
2023-04-05T04:29:18.248Z,15.41
2023-04-05T04:32:53.176Z,15.31
2023-04-05T04:36:19.203Z,15.21
2023-04-05T04:39:28.119Z,15.50
2023-04-05T04:42:46.851Z,15.29
2023-04-05T04:46:15.470Z,15.17
2023-04-05T04:49:42.554Z,15.31
2023-04-05T04:52:44.794Z,15.92
2023-04-05T04:55:50.125Z,16.97
2023-04-05T04:58:59.344Z,17.82
2023-04-05T05:02:01.541Z,18.42
2023-04-05T05:05:05.039Z,18.22
2023-04-05T05:08:07.177Z,18.69
2023-04-05T05:11:09.558Z,18.64
2023-04-05T05:14:11.678Z,18.39
2023-04-05T05:17:13.916Z,19.01
2023-04-05T05:20:16.068Z,18.65
2023-04-05T05:23:21.601Z,18.32
2023-04-05T05:26:23.795Z,18.30
2023-04-05T05:29:25.931Z,17.81
2023-04-05T05:32:28.432Z,17.53
2023-04-05T05:35:30.692Z,17.39
2023-04-05T05:38:32.763Z,17.30
2023-04-05T05:41:35.156Z,17.19
2023-04-05T05:44:37.396Z,16.90
2023-04-05T05:47:39.554Z,17.27
2023-04-05T05:50:42.271Z,17.13
2023-04-05T05:53:45.494Z,17.07
2023-04-05T05:56:47.582Z,16.87
2023-04-05T05:59:49.645Z,16.94
2023-04-05T06:02:52.972Z,16.86
2023-04-05T06:05:57.761Z,16.89
2023-04-05T06:09:00.147Z,16.97
2023-04-05T06:12:05.288Z,16.97
2023-04-05T06:15:08.186Z,16.90
2023-04-05T06:18:10.750Z,16.74
2023-04-05T06:21:12.949Z,16.86
2023-04-05T06:24:15.095Z,16.60
2023-04-05T06:27:17.818Z,16.47
2023-04-05T06:30:20.610Z,16.36
2023-04-05T06:33:23.586Z,16.30
2023-04-05T06:36:27.652Z,15.72
2023-04-05T06:39:29.990Z,16.84
2023-04-05T06:42:32.048Z,17.69
2023-04-05T06:45:38.991Z,17.46
2023-04-05T06:48:41.856Z,17.32
2023-04-05T06:51:45.583Z,18.07
2023-04-05T06:54:49.598Z,17.75
2023-04-05T06:57:51.723Z,17.35
2023-04-05T07:00:54.406Z,18.05
2023-04-05T07:03:56.674Z,17.74
2023-04-05T07:07:02.926Z,17.50
2023-04-05T07:10:05.772Z,17.79
2023-04-05T07:13:07.878Z,18.00
2023-04-05T07:16:10.259Z,17.69
2023-04-05T07:19:12.368Z,17.97
2023-04-05T07:22:17.855Z,18.13
2023-04-05T07:25:22.670Z,17.64
2023-04-05T07:28:26.238Z,17.59
2023-04-05T07:31:28.789Z,18.32
2023-04-05T07:34:34.120Z,17.73
2023-04-05T07:37:48.157Z,17.65
2023-04-05T07:40:52.435Z,18.26
2023-04-05T07:47:32.539Z,17.91
2023-04-05T07:50:37.411Z,18.65
2023-04-05T07:53:40.194Z,18.54
2023-04-05T07:56:42.655Z,17.95
2023-04-05T07:59:50.255Z,18.14
2023-04-05T08:03:19.205Z,18.66
2023-04-05T08:06:27.209Z,17.97
2023-04-05T08:09:29.254Z,18.06
2023-04-05T08:12:33.893Z,18.77
2023-04-05T08:15:36.576Z,18.33
2023-04-05T08:18:40.546Z,17.88
2023-04-05T08:21:42.911Z,18.42
2023-04-05T08:24:45.722Z,18.08
2023-04-05T08:27:48.184Z,18.01
2023-04-05T08:30:59.495Z,18.23
2023-04-05T08:34:11.999Z,17.99
2023-04-05T08:37:14.161Z,17.71
2023-04-05T08:40:18.022Z,17.94
2023-04-05T08:43:45.026Z,18.16
2023-04-05T08:46:50.693Z,18.31
2023-04-05T08:49:52.946Z,18.73
2023-04-05T08:52:55.026Z,19.33
2023-04-05T08:56:04.438Z,18.43
2023-04-05T08:59:08.547Z,18.27
2023-04-05T09:02:21.233Z,18.97
2023-04-05T09:05:24.665Z,18.73
2023-04-05T09:08:28.127Z,18.13
2023-04-05T09:11:31.249Z,18.72
2023-04-05T09:14:38.574Z,18.65
2023-04-05T09:17:42.505Z,18.15
2023-04-05T09:20:44.649Z,18.48
2023-04-05T09:23:54.304Z,19.10
2023-04-05T09:27:13.505Z,18.49
2023-04-05T09:30:26.021Z,18.67
2023-04-05T09:33:29.923Z,19.07
2023-04-05T09:36:38.518Z,18.59
2023-04-05T09:39:41.087Z,18.51
2023-04-05T09:42:47.476Z,19.56
2023-04-05T09:45:49.640Z,19.14
2023-04-05T09:48:51.720Z,18.59
2023-04-05T09:51:53.950Z,18.82
2023-04-05T09:55:04.643Z,19.54
2023-04-05T09:58:19.056Z,20.17
2023-04-05T10:01:22.423Z,20.38
2023-04-05T10:04:25.293Z,20.36
2023-04-05T10:07:27.337Z,19.69
2023-04-05T10:10:31.870Z,20.17
2023-04-05T10:13:34.681Z,19.64
2023-04-05T10:16:56.100Z,19.92
2023-04-05T10:20:19.636Z,20.55
2023-04-05T10:23:35.755Z,20.45
2023-04-05T10:26:46.123Z,19.99
2023-04-05T10:29:59.180Z,19.99
2023-04-05T10:33:10.467Z,20.36
2023-04-05T10:36:19.613Z,20.10
2023-04-05T10:39:28.043Z,20.29
2023-04-05T10:42:41.957Z,20.33
2023-04-05T10:45:47.127Z,19.74
2023-04-05T10:48:57.902Z,19.76
2023-04-05T10:52:00.997Z,20.14
2023-04-05T10:55:04.629Z,20.07
2023-04-05T10:58:07.349Z,19.94
2023-04-05T11:01:10.682Z,19.64
2023-04-05T11:04:17.310Z,19.95
2023-04-05T11:07:20.062Z,19.46
2023-04-05T11:10:23.748Z,18.57
2023-04-05T11:13:52.807Z,16.68
2023-04-05T11:17:00.092Z,17.37
2023-04-05T11:20:06.163Z,17.98
2023-04-05T11:23:12.604Z,18.00
2023-04-05T11:26:15.432Z,17.92
2023-04-05T11:29:17.724Z,17.99
2023-04-05T11:32:22.225Z,17.84
2023-04-05T11:35:24.341Z,17.94
2023-04-05T11:38:26.776Z,17.90
2023-04-05T11:41:34.370Z,17.82
2023-04-05T11:44:43.490Z,17.75
2023-04-05T11:47:47.568Z,17.52
2023-04-05T11:50:51.411Z,17.36
2023-04-05T11:53:53.523Z,17.34
2023-04-05T11:57:01.116Z,17.24
2023-04-05T12:00:05.162Z,17.28
2023-04-05T12:03:21.045Z,17.17
2023-04-05T12:06:25.027Z,17.20
2023-04-05T12:09:27.945Z,17.06
2023-04-05T12:12:43.866Z,16.88
2023-04-05T12:15:45.942Z,16.73
2023-04-05T12:19:01.005Z,16.62
2023-04-05T12:22:03.779Z,16.75
2023-04-05T12:25:06.790Z,16.75
2023-04-05T12:28:09.371Z,16.73
2023-04-05T12:31:11.975Z,16.71
2023-04-05T12:34:15.438Z,16.75
2023-04-05T12:37:24.194Z,16.79
2023-04-05T12:40:30.515Z,16.78
2023-04-05T12:43:42.617Z,16.98
2023-04-05T12:46:48.275Z,16.93
2023-04-05T12:49:52.406Z,16.85
2023-04-05T12:53:03.280Z,16.82
2023-04-05T12:56:07.474Z,16.65
2023-04-05T12:59:17.997Z,16.72
2023-04-05T13:02:56.341Z,17.02
2023-04-05T13:06:02.537Z,17.56
2023-04-05T13:09:04.770Z,18.37
2023-04-05T13:12:12.503Z,18.78
2023-04-05T13:15:21.644Z,18.42
2023-04-05T13:18:25.039Z,18.93
2023-04-05T13:21:27.369Z,19.52
2023-04-05T13:24:30.678Z,18.96
2023-04-05T13:27:40.086Z,19.35
2023-04-05T13:30:42.358Z,19.75
2023-04-05T13:33:45.048Z,19.90
2023-04-05T13:36:48.604Z,19.25
2023-04-05T13:39:52.520Z,19.67
2023-04-05T13:42:58.114Z,19.94
2023-04-05T13:46:11.241Z,19.42
2023-04-05T13:49:17.316Z,19.26
2023-04-05T13:52:19.878Z,19.92
2023-04-05T13:55:23.619Z,19.80
2023-04-05T13:58:27.503Z,19.28
2023-04-05T14:01:39.468Z,19.65
2023-04-05T14:04:52.929Z,19.88
2023-04-05T14:07:56.130Z,19.11
2023-04-05T14:10:59.038Z,19.32
2023-04-05T14:14:01.215Z,19.84
2023-04-05T14:17:03.476Z,19.59
2023-04-05T14:20:06.700Z,18.86
2023-04-05T14:23:12.755Z,19.47
2023-04-05T14:26:14.963Z,19.31
2023-04-05T14:29:29.685Z,19.45
2023-04-05T14:32:33.896Z,18.83
2023-04-05T14:35:36.555Z,19.57
2023-04-05T14:38:39.168Z,19.23
2023-04-05T14:41:41.803Z,18.91
2023-04-05T14:44:43.950Z,19.21
2023-04-05T14:51:05.582Z,18.65
2023-04-05T14:54:09.274Z,18.87
2023-04-05T14:57:11.859Z,19.31
2023-04-05T15:00:42.226Z,19.53
2023-04-05T15:08:21.942Z,19.61
2023-04-05T15:11:41.557Z,19.74
2023-04-05T15:14:45.943Z,19.37
2023-04-05T15:18:12.021Z,19.54
2023-04-05T15:21:14.883Z,19.88
2023-04-05T15:24:50.519Z,19.91
2023-04-05T15:31:55.017Z,19.61
2023-04-05T15:34:58.181Z,20.16
2023-04-05T15:38:09.848Z,19.95
2023-04-05T15:41:16.365Z,19.59
2023-04-05T15:44:24.589Z,19.87
2023-04-05T15:47:33.030Z,20.03
2023-04-05T15:50:46.678Z,19.02
2023-04-05T15:53:49.021Z,19.13
2023-04-05T15:56:55.247Z,19.79
2023-04-05T15:59:57.376Z,19.85
2023-04-05T16:03:01.063Z,19.46
2023-04-05T16:11:33.071Z,19.45
2023-04-05T16:14:48.102Z,19.25
2023-04-05T16:22:01.036Z,19.48
2023-04-05T16:25:05.732Z,19.43
2023-04-05T16:28:12.220Z,19.05
2023-04-05T16:31:16.897Z,19.56
2023-04-05T16:34:19.066Z,19.58
2023-04-05T16:37:21.679Z,18.24
2023-04-05T16:40:24.071Z,17.91
2023-04-05T16:43:28.360Z,18.23
2023-04-05T16:46:32.284Z,18.31
2023-04-05T16:49:37.404Z,18.33
2023-04-05T16:52:39.697Z,18.37
2023-04-05T16:55:42.921Z,18.24
2023-04-05T16:58:47.876Z,18.06
2023-04-05T17:01:50.166Z,17.99
2023-04-05T17:04:53.302Z,17.81
2023-04-05T17:07:56.784Z,17.67
2023-04-05T17:10:58.840Z,17.45
2023-04-05T17:14:01.126Z,17.38
2023-04-05T17:17:03.490Z,17.23
2023-04-05T17:20:06.429Z,17.18
2023-04-05T17:23:08.551Z,16.98
2023-04-05T17:26:11.419Z,16.95
2023-04-05T17:29:14.158Z,16.89
2023-04-05T17:32:16.671Z,16.71
2023-04-05T17:35:23.197Z,16.56
2023-04-05T17:38:26.651Z,16.71
2023-04-05T17:41:29.771Z,16.72
2023-04-05T17:44:33.021Z,16.63
2023-04-05T17:47:35.952Z,16.57
2023-04-05T17:50:39.569Z,16.59
2023-04-05T17:53:42.587Z,16.45
2023-04-05T17:56:49.738Z,16.70
2023-04-05T17:59:51.991Z,16.76
2023-04-05T18:03:24.729Z,17.29
2023-04-05T18:06:27.917Z,17.47
2023-04-05T18:09:45.226Z,18.21
2023-04-05T18:12:52.558Z,18.36
2023-04-05T18:16:00.063Z,18.47
2023-04-05T18:19:03.694Z,18.85
2023-04-05T18:22:06.085Z,18.97
2023-04-05T18:25:09.954Z,18.81
2023-04-05T18:28:22.790Z,18.67
2023-04-05T18:31:30.980Z,18.31
2023-04-05T18:34:34.644Z,18.29
2023-04-05T18:37:37.972Z,17.88
2023-04-05T18:40:40.408Z,17.82
2023-04-05T18:43:55.783Z,17.63
2023-04-05T18:46:59.084Z,17.72
2023-04-05T18:50:03.950Z,17.60
2023-04-05T18:56:41.729Z,17.43
2023-04-05T18:59:44.059Z,18.09
2023-04-05T19:02:46.618Z,18.22
2023-04-05T19:05:51.397Z,18.22
2023-04-05T19:08:53.599Z,17.95
2023-04-05T19:12:10.854Z,17.90
2023-04-05T19:15:19.995Z,17.69
2023-04-05T19:18:27.861Z,17.71
2023-04-05T19:21:32.235Z,17.69
2023-04-05T19:24:39.610Z,17.74
2023-04-05T19:27:44.118Z,17.65
2023-04-05T19:30:46.999Z,17.67
2023-04-05T19:33:51.847Z,17.52
2023-04-05T19:36:54.179Z,17.28
2023-04-05T19:39:56.489Z,17.03
2023-04-05T19:43:02.316Z,16.95
2023-04-05T19:46:12.886Z,16.90
2023-04-05T19:49:41.125Z,16.85
2023-04-05T19:52:47.670Z,16.58
2023-04-05T19:55:52.227Z,16.60
2023-04-05T19:59:01.266Z,16.73
2023-04-05T20:02:19.358Z,16.66
2023-04-05T20:05:56.702Z,16.57
2023-04-05T20:09:06.305Z,16.47
2023-04-05T20:12:19.580Z,16.33
2023-04-05T20:15:37.580Z,16.22
2023-04-05T20:18:48.706Z,16.21
2023-04-05T20:21:51.017Z,16.48
2023-04-05T20:24:55.596Z,16.49
2023-04-05T20:27:57.888Z,16.36
2023-04-05T20:31:00.017Z,16.24
2023-04-05T20:34:15.028Z,16.38
2023-04-05T20:37:17.177Z,16.33
2023-04-05T20:40:19.200Z,16.16
2023-04-05T20:46:54.722Z,16.30
2023-04-05T20:49:56.845Z,16.15
2023-04-05T20:53:51.423Z,16.24
2023-04-05T20:56:53.741Z,16.04
2023-04-05T21:00:02.321Z,15.88
2023-04-05T21:03:06.795Z,15.77
2023-04-05T21:06:10.451Z,15.88
2023-04-05T21:09:12.720Z,15.68
2023-04-05T21:12:14.927Z,15.64
2023-04-05T21:15:17.278Z,15.65
2023-04-05T21:18:19.631Z,15.51
2023-04-05T21:21:21.751Z,15.52
2023-04-05T21:24:23.937Z,15.56
2023-04-05T21:27:27.501Z,15.53
2023-04-05T21:30:29.749Z,15.60
2023-04-05T21:33:32.071Z,15.46
2023-04-05T21:36:34.403Z,15.39
2023-04-05T21:39:36.578Z,15.37
2023-04-05T21:42:38.621Z,15.31
2023-04-05T21:45:40.963Z,15.22
2023-04-05T21:48:43.174Z,15.30
2023-04-05T21:51:45.504Z,15.37
2023-04-05T21:54:48.145Z,15.27
2023-04-05T21:57:50.593Z,15.33
2023-04-05T22:00:53.002Z,15.34
2023-04-05T22:03:55.275Z,15.37
2023-04-05T22:06:57.395Z,15.33
2023-04-05T22:09:59.664Z,15.62
2023-04-05T22:13:04.354Z,15.53
2023-04-05T22:16:06.913Z,15.41
2023-04-05T22:19:11.947Z,15.47
2023-04-05T22:22:15.240Z,15.41
2023-04-05T22:28:27.265Z,15.27
2023-04-05T22:31:29.936Z,15.25
2023-04-05T22:34:32.063Z,15.22
2023-04-05T22:37:36.742Z,14.99
2023-04-05T22:40:38.939Z,15.07
2023-04-05T22:43:41.331Z,15.26
2023-04-05T22:46:43.509Z,15.40
2023-04-05T22:49:45.844Z,15.38
2023-04-05T22:52:48.000Z,15.11
2023-04-05T22:55:51.821Z,15.21
2023-04-05T22:58:54.502Z,15.41
2023-04-05T23:01:57.391Z,15.37
2023-04-05T23:05:00.044Z,15.15
2023-04-05T23:08:02.907Z,15.26
2023-04-05T23:11:05.092Z,15.11
2023-04-05T23:14:07.563Z,14.82
2023-04-05T23:17:10.690Z,14.85
2023-04-05T23:20:13.032Z,14.99
2023-04-05T23:23:18.171Z,15.03
2023-04-05T23:26:20.342Z,14.96
2023-04-05T23:29:22.445Z,15.01
2023-04-05T23:32:25.016Z,15.01
2023-04-05T23:35:27.430Z,15.21
2023-04-05T23:38:30.116Z,15.19
2023-04-05T23:41:32.308Z,15.06
2023-04-05T23:44:34.565Z,15.09
2023-04-05T23:47:36.787Z,15.18
2023-04-05T23:50:39.077Z,15.14
2023-04-05T23:53:41.374Z,14.93
2023-04-05T23:56:43.609Z,14.95
2023-04-05T23:59:45.837Z,14.92
